sensor_id;sensor_type;location;lat;lon;timestamp;P1;P2;P0
47741;PMS5003;33504;52.066;6.096;2022-07-04T00:01:56;13;12;
47741;PMS5003;33504;52.066;6.096;2022-07-04T00:04:23;13;13;
47741;PMS5003;33504;52.066;6.096;2022-07-04T00:06:50;15;15;
47741;PMS5003;33504;52.066;6.096;2022-07-04T00:09:18;17;16;
47741;PMS5003;33504;52.066;6.096;2022-07-04T00:11:44;18;17;
47741;PMS5003;33504;52.066;6.096;2022-07-04T00:14:11;22;20;
47741;PMS5003;33504;52.066;6.096;2022-07-04T00:16:38;26;26;
47741;PMS5003;33504;52.066;6.096;2022-07-04T00:19:05;29;29;
47741;PMS5003;33504;52.066;6.096;2022-07-04T00:21:32;28;27;
47741;PMS5003;33504;52.066;6.096;2022-07-04T00:24:00;16;16;
47741;PMS5003;33504;52.066;6.096;2022-07-04T00:26:27;29;29;
47741;PMS5003;33504;52.066;6.096;2022-07-04T00:28:53;11;11;
47741;PMS5003;33504;52.066;6.096;2022-07-04T00:31:21;9;9;
47741;PMS5003;33504;52.066;6.096;2022-07-04T00:33:48;7;7;
47741;PMS5003;33504;52.066;6.096;2022-07-04T00:36:15;7;6;
47741;PMS5003;33504;52.066;6.096;2022-07-04T00:38:42;7;7;
47741;PMS5003;33504;52.066;6.096;2022-07-04T00:41:10;6;6;
47741;PMS5003;33504;52.066;6.096;2022-07-04T00:43:37;6;6;
47741;PMS5003;33504;52.066;6.096;2022-07-04T00:46:05;9;8;
47741;PMS5003;33504;52.066;6.096;2022-07-04T00:48:32;19;19;
47741;PMS5003;33504;52.066;6.096;2022-07-04T00:51:00;6;6;
47741;PMS5003;33504;52.066;6.096;2022-07-04T00:53:26;6;5;
47741;PMS5003;33504;52.066;6.096;2022-07-04T00:55:55;6;6;
47741;PMS5003;33504;52.066;6.096;2022-07-04T00:58:22;7;7;
47741;PMS5003;33504;52.066;6.096;2022-07-04T01:00:50;7;6;
47741;PMS5003;33504;52.066;6.096;2022-07-04T01:03:16;6;5;
47741;PMS5003;33504;52.066;6.096;2022-07-04T01:05:44;6;4;
47741;PMS5003;33504;52.066;6.096;2022-07-04T01:08:11;4;4;
47741;PMS5003;33504;52.066;6.096;2022-07-04T01:10:40;5;5;
47741;PMS5003;33504;52.066;6.096;2022-07-04T01:13:07;6;6;
47741;PMS5003;33504;52.066;6.096;2022-07-04T01:15:34;7;6;
47741;PMS5003;33504;52.066;6.096;2022-07-04T01:18:01;5;5;
47741;PMS5003;33504;52.066;6.096;2022-07-04T01:20:32;6;5;
47741;PMS5003;33504;52.066;6.096;2022-07-04T01:23:01;6;5;
47741;PMS5003;33504;52.066;6.096;2022-07-04T01:25:28;5;5;
47741;PMS5003;33504;52.066;6.096;2022-07-04T01:27:55;4;4;
47741;PMS5003;33504;52.066;6.096;2022-07-04T01:30:21;5;5;
47741;PMS5003;33504;52.066;6.096;2022-07-04T01:32:49;5;5;
47741;PMS5003;33504;52.066;6.096;2022-07-04T01:35:16;5;5;
47741;PMS5003;33504;52.066;6.096;2022-07-04T01:37:43;7;7;
47741;PMS5003;33504;52.066;6.096;2022-07-04T01:40:10;8;8;
47741;PMS5003;33504;52.066;6.096;2022-07-04T01:42:37;9;8;
47741;PMS5003;33504;52.066;6.096;2022-07-04T01:45:06;7;7;
47741;PMS5003;33504;52.066;6.096;2022-07-04T01:47:34;5;5;
47741;PMS5003;33504;52.066;6.096;2022-07-04T01:50:03;8;8;
47741;PMS5003;33504;52.066;6.096;2022-07-04T01:52:32;8;7;
47741;PMS5003;33504;52.066;6.096;2022-07-04T01:55:00;9;7;
47741;PMS5003;33504;52.066;6.096;2022-07-04T01:57:28;9;8;
47741;PMS5003;33504;52.066;6.096;2022-07-04T01:59:54;8;8;
47741;PMS5003;33504;52.066;6.096;2022-07-04T02:02:21;8;8;
47741;PMS5003;33504;52.066;6.096;2022-07-04T02:04:48;7;7;
47741;PMS5003;33504;52.066;6.096;2022-07-04T02:07:15;7;7;
47741;PMS5003;33504;52.066;6.096;2022-07-04T02:09:43;5;5;
47741;PMS5003;33504;52.066;6.096;2022-07-04T02:12:10;6;5;
47741;PMS5003;33504;52.066;6.096;2022-07-04T02:14:36;7;6;
47741;PMS5003;33504;52.066;6.096;2022-07-04T02:17:03;6;5;
47741;PMS5003;33504;52.066;6.096;2022-07-04T02:19:30;9;6;
47741;PMS5003;33504;52.066;6.096;2022-07-04T02:21:57;6;6;
47741;PMS5003;33504;52.066;6.096;2022-07-04T02:24:24;7;7;
47741;PMS5003;33504;52.066;6.096;2022-07-04T02:26:50;5;5;
47741;PMS5003;33504;52.066;6.096;2022-07-04T02:29:17;6;5;
47741;PMS5003;33504;52.066;6.096;2022-07-04T02:31:45;6;6;
47741;PMS5003;33504;52.066;6.096;2022-07-04T02:34:11;7;7;
47741;PMS5003;33504;52.066;6.096;2022-07-04T02:36:38;6;6;
47741;PMS5003;33504;52.066;6.096;2022-07-04T02:39:05;9;7;
47741;PMS5003;33504;52.066;6.096;2022-07-04T02:41:33;6;6;
47741;PMS5003;33504;52.066;6.096;2022-07-04T02:44:00;6;5;
47741;PMS5003;33504;52.066;6.096;2022-07-04T02:46:27;6;6;
47741;PMS5003;33504;52.066;6.096;2022-07-04T02:48:55;5;5;
47741;PMS5003;33504;52.066;6.096;2022-07-04T02:51:21;5;5;
47741;PMS5003;33504;52.066;6.096;2022-07-04T02:53:49;6;6;
47741;PMS5003;33504;52.066;6.096;2022-07-04T02:56:16;5;5;
47741;PMS5003;33504;52.066;6.096;2022-07-04T02:58:43;8;7;
47741;PMS5003;33504;52.066;6.096;2022-07-04T03:01:11;4;4;
47741;PMS5003;33504;52.066;6.096;2022-07-04T03:03:38;6;6;
47741;PMS5003;33504;52.066;6.096;2022-07-04T03:06:06;5;5;
47741;PMS5003;33504;52.066;6.096;2022-07-04T03:08:33;7;6;
47741;PMS5003;33504;52.066;6.096;2022-07-04T03:11:01;6;6;
47741;PMS5003;33504;52.066;6.096;2022-07-04T03:13:28;6;6;
47741;PMS5003;33504;52.066;6.096;2022-07-04T03:15:55;5;5;
47741;PMS5003;33504;52.066;6.096;2022-07-04T03:18:23;5;5;
47741;PMS5003;33504;52.066;6.096;2022-07-04T03:20:50;6;6;
47741;PMS5003;33504;52.066;6.096;2022-07-04T03:23:17;5;5;
47741;PMS5003;33504;52.066;6.096;2022-07-04T03:25:45;5;5;
47741;PMS5003;33504;52.066;6.096;2022-07-04T03:28:11;5;5;
47741;PMS5003;33504;52.066;6.096;2022-07-04T03:30:38;6;6;
47741;PMS5003;33504;52.066;6.096;2022-07-04T03:33:05;8;6;
47741;PMS5003;33504;52.066;6.096;2022-07-04T03:35:32;4;4;
47741;PMS5003;33504;52.066;6.096;2022-07-04T03:37:59;8;8;
47741;PMS5003;33504;52.066;6.096;2022-07-04T03:40:26;8;7;
47741;PMS5003;33504;52.066;6.096;2022-07-04T03:42:52;8;7;
47741;PMS5003;33504;52.066;6.096;2022-07-04T03:45:19;6;6;
47741;PMS5003;33504;52.066;6.096;2022-07-04T03:47:46;7;7;
47741;PMS5003;33504;52.066;6.096;2022-07-04T03:50:13;7;6;
47741;PMS5003;33504;52.066;6.096;2022-07-04T03:52:39;6;6;
47741;PMS5003;33504;52.066;6.096;2022-07-04T03:55:07;9;9;
47741;PMS5003;33504;52.066;6.096;2022-07-04T03:57:34;8;8;
47741;PMS5003;33504;52.066;6.096;2022-07-04T04:00:01;9;8;
47741;PMS5003;33504;52.066;6.096;2022-07-04T04:02:29;8;8;
47741;PMS5003;33504;52.066;6.096;2022-07-04T04:04:56;8;8;
47741;PMS5003;33504;52.066;6.096;2022-07-04T04:07:23;9;9;
47741;PMS5003;33504;52.066;6.096;2022-07-04T04:09:49;10;9;
47741;PMS5003;33504;52.066;6.096;2022-07-04T04:12:16;10;10;
47741;PMS5003;33504;52.066;6.096;2022-07-04T04:14:43;11;11;
47741;PMS5003;33504;52.066;6.096;2022-07-04T04:17:10;9;9;
47741;PMS5003;33504;52.066;6.096;2022-07-04T04:19:37;9;9;
47741;PMS5003;33504;52.066;6.096;2022-07-04T04:22:04;16;16;
47741;PMS5003;33504;52.066;6.096;2022-07-04T04:24:31;14;13;
47741;PMS5003;33504;52.066;6.096;2022-07-04T04:26:58;13;12;
47741;PMS5003;33504;52.066;6.096;2022-07-04T04:29:25;10;10;
47741;PMS5003;33504;52.066;6.096;2022-07-04T04:31:52;16;15;
47741;PMS5003;33504;52.066;6.096;2022-07-04T04:34:18;16;16;
47741;PMS5003;33504;52.066;6.096;2022-07-04T04:36:45;15;15;
47741;PMS5003;33504;52.066;6.096;2022-07-04T04:39:12;15;14;
47741;PMS5003;33504;52.066;6.096;2022-07-04T04:41:38;14;13;
47741;PMS5003;33504;52.066;6.096;2022-07-04T04:44:06;17;17;
47741;PMS5003;33504;52.066;6.096;2022-07-04T04:46:32;16;15;
47741;PMS5003;33504;52.066;6.096;2022-07-04T04:48:59;17;17;
47741;PMS5003;33504;52.066;6.096;2022-07-04T04:51:26;21;18;
47741;PMS5003;33504;52.066;6.096;2022-07-04T04:53:53;18;17;
47741;PMS5003;33504;52.066;6.096;2022-07-04T04:56:20;19;18;
47741;PMS5003;33504;52.066;6.096;2022-07-04T04:58:47;20;18;
47741;PMS5003;33504;52.066;6.096;2022-07-04T05:01:13;17;17;
47741;PMS5003;33504;52.066;6.096;2022-07-04T05:03:40;20;19;
47741;PMS5003;33504;52.066;6.096;2022-07-04T05:06:07;21;21;
47741;PMS5003;33504;52.066;6.096;2022-07-04T05:08:34;20;20;
47741;PMS5003;33504;52.066;6.096;2022-07-04T05:11:02;17;17;
47741;PMS5003;33504;52.066;6.096;2022-07-04T05:13:29;21;18;
47741;PMS5003;33504;52.066;6.096;2022-07-04T05:15:56;15;15;
47741;PMS5003;33504;52.066;6.096;2022-07-04T05:18:23;19;18;
47741;PMS5003;33504;52.066;6.096;2022-07-04T05:20:50;22;19;
47741;PMS5003;33504;52.066;6.096;2022-07-04T05:23:18;22;21;
47741;PMS5003;33504;52.066;6.096;2022-07-04T05:25:45;21;18;
47741;PMS5003;33504;52.066;6.096;2022-07-04T05:28:12;19;17;
47741;PMS5003;33504;52.066;6.096;2022-07-04T05:30:39;16;16;
47741;PMS5003;33504;52.066;6.096;2022-07-04T05:33:06;17;17;
47741;PMS5003;33504;52.066;6.096;2022-07-04T05:35:33;16;16;
47741;PMS5003;33504;52.066;6.096;2022-07-04T05:38:00;20;18;
47741;PMS5003;33504;52.066;6.096;2022-07-04T05:40:27;21;19;
47741;PMS5003;33504;52.066;6.096;2022-07-04T05:42:54;23;22;
47741;PMS5003;33504;52.066;6.096;2022-07-04T05:45:20;20;20;
47741;PMS5003;33504;52.066;6.096;2022-07-04T05:47:47;16;15;
47741;PMS5003;33504;52.066;6.096;2022-07-04T05:50:14;18;17;
47741;PMS5003;33504;52.066;6.096;2022-07-04T05:52:41;19;19;
47741;PMS5003;33504;52.066;6.096;2022-07-04T05:55:09;15;15;
47741;PMS5003;33504;52.066;6.096;2022-07-04T05:57:36;17;16;
47741;PMS5003;33504;52.066;6.096;2022-07-04T06:00:04;17;16;
47741;PMS5003;33504;52.066;6.096;2022-07-04T06:02:32;16;15;
47741;PMS5003;33504;52.066;6.096;2022-07-04T06:04:59;17;16;
47741;PMS5003;33504;52.066;6.096;2022-07-04T06:07:26;17;16;
47741;PMS5003;33504;52.066;6.096;2022-07-04T06:09:53;17;16;
47741;PMS5003;33504;52.066;6.096;2022-07-04T06:12:20;16;15;
47741;PMS5003;33504;52.066;6.096;2022-07-04T06:14:47;16;15;
47741;PMS5003;33504;52.066;6.096;2022-07-04T06:17:14;14;14;
47741;PMS5003;33504;52.066;6.096;2022-07-04T06:19:40;11;11;
47741;PMS5003;33504;52.066;6.096;2022-07-04T06:22:08;14;14;
47741;PMS5003;33504;52.066;6.096;2022-07-04T06:24:35;23;23;
47741;PMS5003;33504;52.066;6.096;2022-07-04T06:27:02;17;17;
47741;PMS5003;33504;52.066;6.096;2022-07-04T06:29:30;17;16;
47741;PMS5003;33504;52.066;6.096;2022-07-04T06:31:56;14;13;
47741;PMS5003;33504;52.066;6.096;2022-07-04T06:34:23;13;11;
47741;PMS5003;33504;52.066;6.096;2022-07-04T06:36:51;11;9;
47741;PMS5003;33504;52.066;6.096;2022-07-04T06:39:18;13;11;
47741;PMS5003;33504;52.066;6.096;2022-07-04T06:41:45;12;11;
47741;PMS5003;33504;52.066;6.096;2022-07-04T06:44:12;10;10;
47741;PMS5003;33504;52.066;6.096;2022-07-04T06:46:39;10;10;
47741;PMS5003;33504;52.066;6.096;2022-07-04T06:49:06;9;9;
47741;PMS5003;33504;52.066;6.096;2022-07-04T06:51:33;9;8;
47741;PMS5003;33504;52.066;6.096;2022-07-04T06:53:59;10;10;
47741;PMS5003;33504;52.066;6.096;2022-07-04T06:56:26;11;10;
47741;PMS5003;33504;52.066;6.096;2022-07-04T06:58:53;9;9;
47741;PMS5003;33504;52.066;6.096;2022-07-04T07:01:21;14;13;
47741;PMS5003;33504;52.066;6.096;2022-07-04T07:03:47;13;13;
47741;PMS5003;33504;52.066;6.096;2022-07-04T07:06:15;17;17;
47741;PMS5003;33504;52.066;6.096;2022-07-04T07:08:42;14;13;
47741;PMS5003;33504;52.066;6.096;2022-07-04T07:11:10;15;13;
47741;PMS5003;33504;52.066;6.096;2022-07-04T07:13:38;12;12;
47741;PMS5003;33504;52.066;6.096;2022-07-04T07:16:05;12;12;
47741;PMS5003;33504;52.066;6.096;2022-07-04T07:18:32;9;8;
47741;PMS5003;33504;52.066;6.096;2022-07-04T07:21:00;11;11;
47741;PMS5003;33504;52.066;6.096;2022-07-04T07:23:27;11;11;
47741;PMS5003;33504;52.066;6.096;2022-07-04T07:25:54;14;13;
47741;PMS5003;33504;52.066;6.096;2022-07-04T07:28:22;10;10;
47741;PMS5003;33504;52.066;6.096;2022-07-04T07:30:49;12;11;
47741;PMS5003;33504;52.066;6.096;2022-07-04T07:33:16;12;11;
47741;PMS5003;33504;52.066;6.096;2022-07-04T07:35:43;12;12;
47741;PMS5003;33504;52.066;6.096;2022-07-04T07:38:10;15;14;
47741;PMS5003;33504;52.066;6.096;2022-07-04T07:40:37;9;9;
47741;PMS5003;33504;52.066;6.096;2022-07-04T07:43:04;26;25;
47741;PMS5003;33504;52.066;6.096;2022-07-04T07:45:31;15;15;
47741;PMS5003;33504;52.066;6.096;2022-07-04T07:47:58;17;16;
47741;PMS5003;33504;52.066;6.096;2022-07-04T07:50:26;16;15;
47741;PMS5003;33504;52.066;6.096;2022-07-04T07:52:53;16;13;
47741;PMS5003;33504;52.066;6.096;2022-07-04T07:55:20;15;14;
47741;PMS5003;33504;52.066;6.096;2022-07-04T07:57:48;18;16;
47741;PMS5003;33504;52.066;6.096;2022-07-04T08:00:16;15;14;
47741;PMS5003;33504;52.066;6.096;2022-07-04T08:02:43;17;17;
47741;PMS5003;33504;52.066;6.096;2022-07-04T08:05:10;17;17;
47741;PMS5003;33504;52.066;6.096;2022-07-04T08:07:38;12;11;
47741;PMS5003;33504;52.066;6.096;2022-07-04T08:10:05;23;23;
47741;PMS5003;33504;52.066;6.096;2022-07-04T08:12:33;19;19;
47741;PMS5003;33504;52.066;6.096;2022-07-04T08:15:00;34;32;
47741;PMS5003;33504;52.066;6.096;2022-07-04T08:17:28;21;21;
47741;PMS5003;33504;52.066;6.096;2022-07-04T08:19:55;25;24;
47741;PMS5003;33504;52.066;6.096;2022-07-04T08:22:22;18;18;
47741;PMS5003;33504;52.066;6.096;2022-07-04T08:24:49;20;20;
47741;PMS5003;33504;52.066;6.096;2022-07-04T08:27:16;25;22;
47741;PMS5003;33504;52.066;6.096;2022-07-04T08:29:44;18;18;
47741;PMS5003;33504;52.066;6.096;2022-07-04T08:32:11;19;19;
47741;PMS5003;33504;52.066;6.096;2022-07-04T08:34:38;16;16;
47741;PMS5003;33504;52.066;6.096;2022-07-04T08:37:05;18;16;
47741;PMS5003;33504;52.066;6.096;2022-07-04T08:39:33;19;18;
47741;PMS5003;33504;52.066;6.096;2022-07-04T08:42:02;15;14;
47741;PMS5003;33504;52.066;6.096;2022-07-04T08:44:32;16;16;
47741;PMS5003;33504;52.066;6.096;2022-07-04T08:47:04;16;15;
47741;PMS5003;33504;52.066;6.096;2022-07-04T08:49:34;15;15;
47741;PMS5003;33504;52.066;6.096;2022-07-04T08:52:05;18;17;
47741;PMS5003;33504;52.066;6.096;2022-07-04T08:54:36;17;16;
47741;PMS5003;33504;52.066;6.096;2022-07-04T08:57:05;20;17;
47741;PMS5003;33504;52.066;6.096;2022-07-04T08:59:32;11;11;
47741;PMS5003;33504;52.066;6.096;2022-07-04T09:01:59;13;13;
47741;PMS5003;33504;52.066;6.096;2022-07-04T09:04:27;13;12;
47741;PMS5003;33504;52.066;6.096;2022-07-04T09:06:55;13;12;
47741;PMS5003;33504;52.066;6.096;2022-07-04T09:09:24;18;17;
47741;PMS5003;33504;52.066;6.096;2022-07-04T09:11:52;15;14;
47741;PMS5003;33504;52.066;6.096;2022-07-04T09:14:19;14;14;
47741;PMS5003;33504;52.066;6.096;2022-07-04T09:16:46;19;18;
47741;PMS5003;33504;52.066;6.096;2022-07-04T09:19:18;17;17;
47741;PMS5003;33504;52.066;6.096;2022-07-04T09:21:47;21;21;
47741;PMS5003;33504;52.066;6.096;2022-07-04T09:24:15;18;17;
47741;PMS5003;33504;52.066;6.096;2022-07-04T09:26:43;18;18;
47741;PMS5003;33504;52.066;6.096;2022-07-04T09:29:12;19;18;
47741;PMS5003;33504;52.066;6.096;2022-07-04T09:31:39;18;18;
47741;PMS5003;33504;52.066;6.096;2022-07-04T09:34:06;17;16;
47741;PMS5003;33504;52.066;6.096;2022-07-04T09:36:35;16;15;
47741;PMS5003;33504;52.066;6.096;2022-07-04T09:39:06;18;17;
47741;PMS5003;33504;52.066;6.096;2022-07-04T09:41:49;15;15;
47741;PMS5003;33504;52.066;6.096;2022-07-04T09:44:17;20;18;
47741;PMS5003;33504;52.066;6.096;2022-07-04T09:46:45;16;15;
47741;PMS5003;33504;52.066;6.096;2022-07-04T09:49:12;16;16;
47741;PMS5003;33504;52.066;6.096;2022-07-04T09:51:40;17;16;
47741;PMS5003;33504;52.066;6.096;2022-07-04T09:54:13;15;14;
47741;PMS5003;33504;52.066;6.096;2022-07-04T09:56:41;19;18;
47741;PMS5003;33504;52.066;6.096;2022-07-04T09:59:09;17;16;
47741;PMS5003;33504;52.066;6.096;2022-07-04T10:01:36;19;19;
47741;PMS5003;33504;52.066;6.096;2022-07-04T10:04:03;19;18;
47741;PMS5003;33504;52.066;6.096;2022-07-04T10:06:31;20;17;
47741;PMS5003;33504;52.066;6.096;2022-07-04T10:09:06;17;16;
47741;PMS5003;33504;52.066;6.096;2022-07-04T10:11:34;19;19;
47741;PMS5003;33504;52.066;6.096;2022-07-04T10:14:01;18;18;
47741;PMS5003;33504;52.066;6.096;2022-07-04T10:16:30;18;18;
47741;PMS5003;33504;52.066;6.096;2022-07-04T10:18:57;19;18;
47741;PMS5003;33504;52.066;6.096;2022-07-04T10:21:24;12;12;
47741;PMS5003;33504;52.066;6.096;2022-07-04T10:23:52;18;18;
47741;PMS5003;33504;52.066;6.096;2022-07-04T10:26:19;16;16;
47741;PMS5003;33504;52.066;6.096;2022-07-04T10:28:48;11;11;
47741;PMS5003;33504;52.066;6.096;2022-07-04T10:31:16;12;11;
47741;PMS5003;33504;52.066;6.096;2022-07-04T10:33:45;11;11;
47741;PMS5003;33504;52.066;6.096;2022-07-04T10:36:13;11;11;
47741;PMS5003;33504;52.066;6.096;2022-07-04T10:38:46;10;10;
47741;PMS5003;33504;52.066;6.096;2022-07-04T10:41:14;13;13;
47741;PMS5003;33504;52.066;6.096;2022-07-04T10:43:58;9;8;
47741;PMS5003;33504;52.066;6.096;2022-07-04T10:46:27;13;13;
47741;PMS5003;33504;52.066;6.096;2022-07-04T10:48:57;10;10;
47741;PMS5003;33504;52.066;6.096;2022-07-04T10:51:35;12;12;
47741;PMS5003;33504;52.066;6.096;2022-07-04T10:54:07;7;5;
47741;PMS5003;33504;52.066;6.096;2022-07-04T10:56:37;5;5;
47741;PMS5003;33504;52.066;6.096;2022-07-04T10:59:07;5;5;
47741;PMS5003;33504;52.066;6.096;2022-07-04T11:01:36;6;6;
47741;PMS5003;33504;52.066;6.096;2022-07-04T11:04:04;5;5;
47741;PMS5003;33504;52.066;6.096;2022-07-04T11:07:03;8;7;
47741;PMS5003;33504;52.066;6.096;2022-07-04T11:09:30;8;8;
47741;PMS5003;33504;52.066;6.096;2022-07-04T11:11:58;6;6;
47741;PMS5003;33504;52.066;6.096;2022-07-04T11:14:29;4;4;
47741;PMS5003;33504;52.066;6.096;2022-07-04T11:16:58;5;5;
47741;PMS5003;33504;52.066;6.096;2022-07-04T11:19:25;6;6;
47741;PMS5003;33504;52.066;6.096;2022-07-04T11:21:53;6;6;
47741;PMS5003;33504;52.066;6.096;2022-07-04T11:24:21;6;5;
47741;PMS5003;33504;52.066;6.096;2022-07-04T11:26:48;7;6;
47741;PMS5003;33504;52.066;6.096;2022-07-04T11:29:15;5;5;
47741;PMS5003;33504;52.066;6.096;2022-07-04T11:31:43;16;16;
47741;PMS5003;33504;52.066;6.096;2022-07-04T11:34:12;34;34;
47741;PMS5003;33504;52.066;6.096;2022-07-04T11:36:40;14;14;
47741;PMS5003;33504;52.066;6.096;2022-07-04T11:39:09;7;7;
47741;PMS5003;33504;52.066;6.096;2022-07-04T11:41:38;7;7;
47741;PMS5003;33504;52.066;6.096;2022-07-04T11:44:06;7;7;
47741;PMS5003;33504;52.066;6.096;2022-07-04T11:46:35;7;7;
47741;PMS5003;33504;52.066;6.096;2022-07-04T11:49:07;6;6;
47741;PMS5003;33504;52.066;6.096;2022-07-04T11:51:34;6;6;
47741;PMS5003;33504;52.066;6.096;2022-07-04T11:54:03;7;7;
47741;PMS5003;33504;52.066;6.096;2022-07-04T11:56:31;5;5;
47741;PMS5003;33504;52.066;6.096;2022-07-04T11:58:58;7;7;
47741;PMS5003;33504;52.066;6.096;2022-07-04T12:01:36;6;6;
47741;PMS5003;33504;52.066;6.096;2022-07-04T12:04:12;6;6;
47741;PMS5003;33504;52.066;6.096;2022-07-04T12:06:40;7;7;
47741;PMS5003;33504;52.066;6.096;2022-07-04T12:09:08;6;5;
47741;PMS5003;33504;52.066;6.096;2022-07-04T12:11:52;6;6;
47741;PMS5003;33504;52.066;6.096;2022-07-04T12:14:21;6;6;
47741;PMS5003;33504;52.066;6.096;2022-07-04T12:16:48;8;7;
47741;PMS5003;33504;52.066;6.096;2022-07-04T12:19:15;7;6;
47741;PMS5003;33504;52.066;6.096;2022-07-04T12:21:43;6;6;
47741;PMS5003;33504;52.066;6.096;2022-07-04T12:24:10;7;7;
47741;PMS5003;33504;52.066;6.096;2022-07-04T12:26:44;7;7;
47741;PMS5003;33504;52.066;6.096;2022-07-04T12:29:19;6;6;
47741;PMS5003;33504;52.066;6.096;2022-07-04T12:31:50;6;6;
47741;PMS5003;33504;52.066;6.096;2022-07-04T12:34:19;7;7;
47741;PMS5003;33504;52.066;6.096;2022-07-04T12:36:48;7;7;
47741;PMS5003;33504;52.066;6.096;2022-07-04T12:39:26;8;8;
47741;PMS5003;33504;52.066;6.096;2022-07-04T12:42:10;9;9;
47741;PMS5003;33504;52.066;6.096;2022-07-04T12:44:38;8;8;
47741;PMS5003;33504;52.066;6.096;2022-07-04T12:47:06;9;9;
47741;PMS5003;33504;52.066;6.096;2022-07-04T12:49:34;8;8;
47741;PMS5003;33504;52.066;6.096;2022-07-04T12:52:03;8;8;
47741;PMS5003;33504;52.066;6.096;2022-07-04T12:54:32;8;8;
47741;PMS5003;33504;52.066;6.096;2022-07-04T12:57:03;7;7;
47741;PMS5003;33504;52.066;6.096;2022-07-04T12:59:32;9;8;
47741;PMS5003;33504;52.066;6.096;2022-07-04T13:01:59;8;8;
47741;PMS5003;33504;52.066;6.096;2022-07-04T13:04:27;6;6;
47741;PMS5003;33504;52.066;6.096;2022-07-04T13:06:54;7;7;
47741;PMS5003;33504;52.066;6.096;2022-07-04T13:09:21;9;9;
47741;PMS5003;33504;52.066;6.096;2022-07-04T13:11:48;7;7;
47741;PMS5003;33504;52.066;6.096;2022-07-04T13:14:16;6;6;
47741;PMS5003;33504;52.066;6.096;2022-07-04T13:16:43;8;8;
47741;PMS5003;33504;52.066;6.096;2022-07-04T13:19:10;7;5;
47741;PMS5003;33504;52.066;6.096;2022-07-04T13:21:37;6;6;
47741;PMS5003;33504;52.066;6.096;2022-07-04T13:24:05;6;6;
47741;PMS5003;33504;52.066;6.096;2022-07-04T13:26:33;7;7;
47741;PMS5003;33504;52.066;6.096;2022-07-04T13:29:00;5;5;
47741;PMS5003;33504;52.066;6.096;2022-07-04T13:31:27;7;7;
47741;PMS5003;33504;52.066;6.096;2022-07-04T13:33:55;7;7;
47741;PMS5003;33504;52.066;6.096;2022-07-04T13:36:22;4;4;
47741;PMS5003;33504;52.066;6.096;2022-07-04T13:38:49;5;5;
47741;PMS5003;33504;52.066;6.096;2022-07-04T13:41:16;5;5;
47741;PMS5003;33504;52.066;6.096;2022-07-04T13:43:44;6;6;
47741;PMS5003;33504;52.066;6.096;2022-07-04T13:46:11;5;5;
47741;PMS5003;33504;52.066;6.096;2022-07-04T13:48:38;4;4;
47741;PMS5003;33504;52.066;6.096;2022-07-04T13:51:06;4;4;
47741;PMS5003;33504;52.066;6.096;2022-07-04T13:53:33;4;3;
47741;PMS5003;33504;52.066;6.096;2022-07-04T13:56:00;2;2;
47741;PMS5003;33504;52.066;6.096;2022-07-04T13:58:27;3;3;
47741;PMS5003;33504;52.066;6.096;2022-07-04T14:00:55;4;4;
47741;PMS5003;33504;52.066;6.096;2022-07-04T14:03:22;3;3;
47741;PMS5003;33504;52.066;6.096;2022-07-04T14:05:49;3;3;
47741;PMS5003;33504;52.066;6.096;2022-07-04T14:08:16;4;4;
47741;PMS5003;33504;52.066;6.096;2022-07-04T14:10:43;5;5;
47741;PMS5003;33504;52.066;6.096;2022-07-04T14:13:11;2;2;
47741;PMS5003;33504;52.066;6.096;2022-07-04T14:15:38;5;4;
47741;PMS5003;33504;52.066;6.096;2022-07-04T14:18:06;5;5;
47741;PMS5003;33504;52.066;6.096;2022-07-04T14:20:33;3;2;
47741;PMS5003;33504;52.066;6.096;2022-07-04T14:23:01;4;4;
47741;PMS5003;33504;52.066;6.096;2022-07-04T14:25:28;5;5;
47741;PMS5003;33504;52.066;6.096;2022-07-04T14:27:55;4;4;
47741;PMS5003;33504;52.066;6.096;2022-07-04T14:30:22;4;4;
47741;PMS5003;33504;52.066;6.096;2022-07-04T14:32:50;6;4;
47741;PMS5003;33504;52.066;6.096;2022-07-04T14:35:17;3;3;
47741;PMS5003;33504;52.066;6.096;2022-07-04T14:37:44;7;5;
47741;PMS5003;33504;52.066;6.096;2022-07-04T14:40:12;4;4;
47741;PMS5003;33504;52.066;6.096;2022-07-04T14:42:39;4;4;
47741;PMS5003;33504;52.066;6.096;2022-07-04T14:45:06;4;4;
47741;PMS5003;33504;52.066;6.096;2022-07-04T14:47:33;4;4;
47741;PMS5003;33504;52.066;6.096;2022-07-04T14:50:01;4;4;
47741;PMS5003;33504;52.066;6.096;2022-07-04T14:52:28;3;3;
47741;PMS5003;33504;52.066;6.096;2022-07-04T14:54:55;2;2;
47741;PMS5003;33504;52.066;6.096;2022-07-04T14:57:22;3;3;
47741;PMS5003;33504;52.066;6.096;2022-07-04T14:59:50;3;3;
47741;PMS5003;33504;52.066;6.096;2022-07-04T15:02:17;4;4;
47741;PMS5003;33504;52.066;6.096;2022-07-04T15:04:44;4;4;
47741;PMS5003;33504;52.066;6.096;2022-07-04T15:07:11;4;3;
47741;PMS5003;33504;52.066;6.096;2022-07-04T15:09:39;4;3;
47741;PMS5003;33504;52.066;6.096;2022-07-04T15:12:06;3;3;
47741;PMS5003;33504;52.066;6.096;2022-07-04T15:14:34;2;2;
47741;PMS5003;33504;52.066;6.096;2022-07-04T15:17:02;2;2;
47741;PMS5003;33504;52.066;6.096;2022-07-04T15:19:29;3;3;
47741;PMS5003;33504;52.066;6.096;2022-07-04T15:21:56;3;3;
47741;PMS5003;33504;52.066;6.096;2022-07-04T15:24:23;4;4;
47741;PMS5003;33504;52.066;6.096;2022-07-04T15:26:51;4;4;
47741;PMS5003;33504;52.066;6.096;2022-07-04T15:29:18;4;3;
47741;PMS5003;33504;52.066;6.096;2022-07-04T15:31:47;3;3;
47741;PMS5003;33504;52.066;6.096;2022-07-04T15:34:15;4;4;
47741;PMS5003;33504;52.066;6.096;2022-07-04T15:36:43;5;5;
47741;PMS5003;33504;52.066;6.096;2022-07-04T15:39:11;4;4;
47741;PMS5003;33504;52.066;6.096;2022-07-04T15:41:40;3;3;
47741;PMS5003;33504;52.066;6.096;2022-07-04T15:44:08;3;3;
47741;PMS5003;33504;52.066;6.096;2022-07-04T15:46:35;5;5;
47741;PMS5003;33504;52.066;6.096;2022-07-04T15:49:02;5;5;
47741;PMS5003;33504;52.066;6.096;2022-07-04T15:51:30;3;3;
47741;PMS5003;33504;52.066;6.096;2022-07-04T15:53:58;5;4;
47741;PMS5003;33504;52.066;6.096;2022-07-04T15:56:25;3;3;
47741;PMS5003;33504;52.066;6.096;2022-07-04T15:58:52;4;3;
47741;PMS5003;33504;52.066;6.096;2022-07-04T16:01:20;5;5;
47741;PMS5003;33504;52.066;6.096;2022-07-04T16:03:47;4;4;
47741;PMS5003;33504;52.066;6.096;2022-07-04T16:06:14;3;3;
47741;PMS5003;33504;52.066;6.096;2022-07-04T16:08:42;4;4;
47741;PMS5003;33504;52.066;6.096;2022-07-04T16:11:09;4;3;
47741;PMS5003;33504;52.066;6.096;2022-07-04T16:13:36;5;5;
47741;PMS5003;33504;52.066;6.096;2022-07-04T16:16:04;3;3;
47741;PMS5003;33504;52.066;6.096;2022-07-04T16:18:31;4;4;
47741;PMS5003;33504;52.066;6.096;2022-07-04T16:20:58;4;4;
47741;PMS5003;33504;52.066;6.096;2022-07-04T16:23:26;4;4;
47741;PMS5003;33504;52.066;6.096;2022-07-04T16:25:53;4;4;
47741;PMS5003;33504;52.066;6.096;2022-07-04T16:28:20;3;3;
47741;PMS5003;33504;52.066;6.096;2022-07-04T16:30:47;3;3;
47741;PMS5003;33504;52.066;6.096;2022-07-04T16:33:15;4;4;
47741;PMS5003;33504;52.066;6.096;2022-07-04T16:35:42;4;4;
47741;PMS5003;33504;52.066;6.096;2022-07-04T16:38:09;3;3;
47741;PMS5003;33504;52.066;6.096;2022-07-04T16:40:37;3;3;